ADDS METAR Data INFO
IDs: Format: Raw Decoded Include TAF

Data at: 2211 UTC 24 Jun 2018

KEYW 242153Z 12004KT 10SM TS FEW036 29/23 A3001 RMK AO2 LTG DSNT N AND NE TSB46 SLP160 T02940233 $
KEYW 242129Z 20005KT 10SM VCTS FEW031 30/24 A2999 RMK AO2 T03000239 $
KEYW 242053Z 30003KT 10SM BKN033 BKN047 31/25 A3000 RMK AO2 LTG DSNT NE SLP160 T03060250 56008 $
KEYW 241953Z 17004KT 10SM SCT036 SCT060 30/23 A3001 RMK AO2 SLP161 T03000233 $
KEYW 241853Z VRB05KT 10SM CLR 31/23 A3001 RMK AO2 SLP161 T03060233 $
KEYW 241753Z 17006KT 10SM CLR 31/24 A3003 RMK AO2 SLP168 60000 T03060239 10317 20283 58009 $
KEYW 241653Z 14005KT 10SM SCT029 BKN090 31/24 A3005 RMK AO2 SLP174 T03060244 $
KEYW 241553Z 18006KT 10SM BKN030 OVC038 30/24 A3006 RMK AO2 SLP180 T03000239 $
KEYW 241453Z 00000KT 10SM SCT028 30/24 A3006 RMK AO2 LTG DSNT W SLP177 TCU DSNT N AND SE AND W 60000 T03000244 51012 $
KEYW 241353Z VRB04KT 10SM SCT025 29/25 A3005 RMK AO2 SLP175 TCU W-NE T02940250 $
KEYW 241253Z 00000KT 10SM SCT021 BKN048 29/26 A3004 RMK AO2 RAE01 SLP171 P0000 T02940256 $
KEYW 241153Z 00000KT 10SM -RA FEW028 SCT039 BKN050 28/26 A3002 RMK AO2 RAB43 SLP165 P0000 60001 70001 T02830256 10283 20267 53009 $
KEYW 241053Z 00000KT 10SM CLR 27/27 A3000 RMK AO2 RAE22 SLP159 P0001 T02720267 $
KEYW 241024Z AUTO 06003KT 10SM FEW100 SCT120 27/27 A3000 RMK AO2 LTG DSNT NE RAE22 P0001 T02670267 $
KEYW 241001Z AUTO 03003KT 10SM VCTS -RA SCT090 BKN110 27/26 A3000 RMK AO2 LTG DSNT NE AND E P0000 T02670261 $
KEYW 240953Z AUTO 04004KT 10SM -RA BKN100 OVC120 27/26 A2999 RMK AO2 LTG DSNT NE AND E RAB26 SLP156 P0000 T02670256 $
KEYW 240920Z AUTO 15004KT 10SM VCTS BKN110 28/24 A2999 RMK AO2 LTG DSNT NE AND S T02830244 $
KEYW 240853Z AUTO 13004KT 10SM SCT033 SCT110 28/25 A2999 RMK AO2 LTG DSNT S SLP154 T02830250 56013 $
KEYW 240753Z AUTO 12005KT 10SM CLR 28/25 A2999 RMK AO2 SLP156 T02830250 $
KEYW 240653Z AUTO 14005KT 10SM CLR 28/24 A3000 RMK AO2 SLP159 T02830244 $
KEYW 240553Z AUTO 08003KT 10SM CLR 28/24 A3002 RMK AO2 SLP167 T02830244 10300 20283 58004 $
KEYW 240453Z AUTO 08003KT 10SM CLR 28/25 A3004 RMK AO2 SLP172 T02830250 403220261 $
KEYW 240353Z AUTO 09003KT 10SM CLR 28/23 A3004 RMK AO2 SLP173 T02830233 $
KEYW 240253Z AUTO 03003KT 10SM CLR 29/24 A3004 RMK AO2 SLP171 T02890244 51009 $
KEYW 240153Z AUTO 03005KT 10SM FEW031 29/24 A3004 RMK AO2 SLP170 T02890239 $
KEYW 240053Z AUTO 03004KT 10SM CLR 29/23 A3002 RMK AO2 SLP166 T02940228 $
KEYW 232353Z 01005KT 10SM FEW035 31/22 A3001 RMK AO2 SLP161 TCU DSNT NE T03060222 10322 20278 53002 $
KEYW 232253Z 34005KT 10SM FEW035 31/24 A3000 RMK AO2 SLP159 TCU DSNT E T03110239 $
KEYW 232153Z 20004KT 10SM SCT035 30/24 A2999 RMK AO2 SLP155 T03000244 $
KEYW 232053Z VRB03KT 10SM FEW025 SCT070 BKN250 29/25 A3000 RMK AO2 SLP160 TCU DSNT SW T02940250 56014 $
KEYW 231953Z 13003KT 10SM SCT027 BKN060 BKN250 29/24 A3002 RMK AO2 TSE06B16E34 SLP164 TCU DSNT SE-NW T02890244 $
KEYW 231940Z 16004KT 10SM FEW029 28/24 A3002 RMK AO2 TSE06B16E34 CB SE-SW T02830244 $
KEYW 231922Z 18007KT 9SM TS FEW028 SCT055 SCT070 28/25 A3002 RMK AO2 TSE06B16 CB SE-SW T02780250 $
KEYW 231911Z 14007KT 100V160 10SM FEW023 SCT029 BKN070 29/23 A3003 RMK AO2 TSE06 CB SE-SW T02890233 $
KEYW 231900Z 09004KT 10SM TS SCT023 BKN029 OVC070 29/24 A3003 RMK AO2 T02890239 $
KEYW 231853Z 07005KT 10SM TS SCT026 BKN039 BKN060 29/25 A3003 RMK AO2 TSB15 SLP168 CB E-SW T02890250 $
KEYW 231815Z 14004KT 10SM TS SCT026 BKN039 OVC060 30/25 A3004 RMK AO2 LTG DSNT E TSB15 T03000250 $
KEYW 231753Z 00000KT 10SM SCT026 BKN038 OVC065 29/25 A3004 RMK AO2 LTG DSNT E SLP173 T02940250 10306 20289 51001 $
KEYW 231653Z 17004KT 10SM FEW029 BKN037 29/24 A3004 RMK AO2 SLP173 T02940244 $
KEYW 231553Z 15005KT 10SM CLR 31/26 A3005 RMK AO2 SLP176 T03060256 $
KEYW 231510Z 21005KT 10SM SCT025 SCT035 29/25 A3005 RMK AO2 T02940250 $
KEYW 231453Z 17005KT 10SM BKN025 30/25 A3004 RMK AO2 SLP173 T03000250 53008 $
KEYW 231413Z VRB03KT 10SM BKN025 BKN032 29/25 A3003 RMK AO2 T02940250 $
KEYW 231353Z VRB03KT 10SM SCT029 BKN036 29/24 A3003 RMK AO2 SLP168 T02940244 $
KEYW 231253Z 19003KT 10SM CLR 29/24 A3003 RMK AO2 SLP167 T02890244 $
KEYW 231153Z 00000KT 10SM CLR 29/25 A3002 RMK AO2 SLP164 T02890250 10289 20261 53010 $
KEYW 231053Z 00000KT 10SM CLR 27/25 A3000 RMK AO2 SLP160 T02670250 $